createdAt,value
2024-01-24T00:00:39.289Z,86.21
2024-01-24T00:01:39.210Z,86.87
2024-01-24T00:02:39.117Z,87.01
2024-01-24T00:03:39.133Z,85.48
2024-01-24T00:04:39.055Z,85.99
2024-01-24T00:05:39.026Z,84.43
2024-01-24T00:06:39.098Z,85.04
2024-01-24T00:07:38.982Z,85.66
2024-01-24T00:08:38.933Z,84.92
2024-01-24T00:09:38.934Z,84.17
2024-01-24T00:10:38.905Z,84.38
2024-01-24T00:11:38.999Z,83.23
2024-01-24T00:12:38.970Z,82.71
2024-01-24T00:13:38.962Z,83.50
2024-01-24T00:14:38.973Z,83.60
2024-01-24T00:15:39.029Z,83.25
2024-01-24T00:16:39.009Z,84.79
2024-01-24T00:17:39.070Z,82.89
2024-01-24T00:18:39.098Z,82.54
2024-01-24T00:19:39.182Z,81.82
2024-01-24T00:20:39.087Z,81.21
2024-01-24T00:21:39.121Z,82.34
2024-01-24T00:22:39.121Z,79.90
2024-01-24T00:23:39.161Z,79.97
2024-01-24T00:24:39.173Z,81.44
2024-01-24T00:25:39.200Z,79.95
2024-01-24T00:26:39.211Z,81.03
2024-01-24T00:27:39.257Z,79.54
2024-01-24T00:28:39.244Z,78.32
2024-01-24T00:29:39.262Z,77.80
2024-01-24T00:30:39.345Z,78.32
2024-01-24T00:31:39.305Z,79.66
2024-01-24T00:32:39.381Z,77.00
2024-01-24T00:33:39.423Z,77.24
2024-01-24T00:34:39.403Z,75.52
2024-01-24T00:35:39.412Z,80.72
2024-01-24T00:36:39.455Z,80.61
2024-01-24T00:37:39.430Z,79.89
2024-01-24T00:38:39.464Z,82.47
2024-01-24T00:39:39.530Z,79.05
2024-01-24T00:40:39.527Z,80.09
2024-01-24T00:41:39.535Z,78.65
2024-01-24T00:42:39.577Z,77.74
2024-01-24T00:43:39.580Z,79.41
2024-01-24T00:44:39.609Z,80.19
2024-01-24T00:45:39.641Z,78.28
2024-01-24T00:46:39.641Z,77.35
2024-01-24T00:47:39.652Z,75.76
2024-01-24T00:48:39.800Z,78.22
2024-01-24T00:49:39.756Z,78.47
2024-01-24T00:50:39.708Z,78.87
2024-01-24T00:51:39.786Z,79.24
2024-01-24T00:52:39.749Z,78.63
2024-01-24T00:53:39.774Z,79.33
2024-01-24T00:54:39.782Z,77.34
2024-01-24T00:55:39.796Z,77.20
2024-01-24T00:56:39.810Z,76.12
2024-01-24T00:57:39.872Z,74.68
2024-01-24T00:58:39.845Z,74.88
2024-01-24T00:59:39.846Z,76.00
2024-01-24T01:00:39.948Z,78.21
2024-01-24T01:01:39.894Z,79.35
2024-01-24T01:02:39.906Z,79.14
2024-01-24T01:03:40.006Z,79.72
2024-01-24T01:04:39.926Z,78.05
2024-01-24T01:05:40.029Z,76.99
2024-01-24T01:06:40.005Z,78.70
2024-01-24T01:07:39.998Z,78.89
2024-01-24T01:08:40.025Z,79.18
2024-01-24T01:09:40.012Z,79.35
2024-01-24T01:10:40.037Z,80.92
2024-01-24T01:11:40.061Z,79.85
2024-01-24T01:12:40.072Z,79.88
2024-01-24T01:13:40.000Z,80.03
2024-01-24T01:14:39.967Z,78.15
2024-01-24T01:15:40.004Z,78.93
2024-01-24T01:16:39.937Z,77.90
2024-01-24T01:17:39.914Z,79.87
2024-01-24T01:18:39.901Z,79.93
2024-01-24T01:19:39.853Z,80.20
2024-01-24T01:20:39.772Z,81.00
2024-01-24T01:21:39.774Z,79.70
2024-01-24T01:22:39.725Z,77.94
2024-01-24T01:23:39.675Z,77.99
2024-01-24T01:24:39.676Z,79.60
2024-01-24T01:25:39.594Z,77.02
2024-01-24T01:26:39.579Z,77.00
2024-01-24T01:27:39.566Z,75.23
2024-01-24T01:28:39.542Z,76.22
2024-01-24T01:29:39.548Z,72.91
2024-01-24T01:30:39.572Z,76.47
2024-01-24T01:31:39.607Z,77.02
2024-01-24T01:32:39.631Z,77.57
2024-01-24T01:33:39.761Z,78.08
2024-01-24T01:34:39.868Z,74.30
2024-01-24T01:35:39.724Z,74.73
2024-01-24T01:36:39.794Z,75.29
2024-01-24T01:37:39.738Z,71.96
2024-01-24T01:38:39.704Z,71.97
2024-01-24T01:39:39.710Z,72.06
2024-01-24T01:40:39.632Z,72.35
2024-01-24T01:41:39.625Z,72.22
2024-01-24T01:42:39.607Z,74.11
2024-01-24T01:43:39.578Z,73.97
2024-01-24T01:44:39.530Z,75.46
2024-01-24T01:45:39.545Z,75.28
2024-01-24T01:46:39.472Z,73.90
2024-01-24T01:47:39.462Z,75.37
2024-01-24T01:48:39.587Z,75.40
2024-01-24T01:49:39.516Z,76.66
2024-01-24T01:50:39.351Z,76.96
2024-01-24T01:51:39.364Z,76.52
2024-01-24T01:52:39.287Z,75.92
2024-01-24T01:53:39.315Z,76.17
2024-01-24T01:54:39.257Z,77.94
2024-01-24T01:55:39.209Z,77.70
2024-01-24T01:56:39.183Z,77.73
2024-01-24T01:57:39.212Z,77.71
2024-01-24T01:58:39.111Z,76.85
2024-01-24T01:59:39.083Z,74.29
2024-01-24T02:00:39.074Z,73.97
2024-01-24T02:01:39.051Z,75.58
2024-01-24T02:02:39.063Z,77.42
2024-01-24T02:03:39.185Z,76.70
2024-01-24T02:04:38.954Z,77.62
2024-01-24T02:05:39.480Z,75.57
2024-01-24T02:06:39.113Z,74.09
2024-01-24T02:07:39.089Z,73.70
2024-01-24T02:08:38.992Z,73.26
2024-01-24T02:09:39.006Z,75.19
2024-01-24T02:10:39.004Z,75.20
2024-01-24T02:11:39.027Z,75.88
2024-01-24T02:12:39.113Z,74.84
2024-01-24T02:13:39.110Z,78.47
2024-01-24T02:14:39.080Z,76.98
2024-01-24T02:15:39.117Z,79.00
2024-01-24T02:16:39.122Z,77.44
2024-01-24T02:17:39.168Z,75.17
2024-01-24T02:18:39.196Z,76.14
2024-01-24T02:19:39.220Z,74.63
2024-01-24T02:20:39.198Z,75.61
2024-01-24T02:21:39.247Z,76.65
2024-01-24T02:22:39.243Z,76.05
2024-01-24T02:23:39.248Z,77.36
2024-01-24T02:24:39.356Z,78.59
2024-01-24T02:25:39.300Z,77.08
2024-01-24T02:26:39.324Z,77.41
2024-01-24T02:27:39.433Z,78.19
2024-01-24T02:28:39.369Z,77.32
2024-01-24T02:29:39.388Z,78.62
2024-01-24T02:30:39.431Z,78.64
2024-01-24T02:31:39.331Z,77.84
2024-01-24T02:32:39.386Z,77.34
2024-01-24T02:33:39.386Z,78.98
2024-01-24T02:34:39.493Z,79.23
2024-01-24T02:35:39.250Z,78.65
2024-01-24T02:36:39.259Z,77.67
2024-01-24T02:37:39.199Z,76.16
2024-01-24T02:38:39.192Z,76.47
2024-01-24T02:39:39.201Z,76.85
2024-01-24T02:40:39.121Z,78.06
2024-01-24T02:41:39.085Z,76.47
2024-01-24T02:42:39.117Z,76.59
2024-01-24T02:43:39.018Z,76.79
2024-01-24T02:44:39.006Z,77.69
2024-01-24T02:45:39.033Z,77.91
2024-01-24T02:46:38.947Z,78.10
2024-01-24T02:47:38.944Z,79.02
2024-01-24T02:48:38.932Z,78.33
2024-01-24T02:49:38.999Z,76.42
2024-01-24T02:50:38.833Z,76.51
2024-01-24T02:51:38.810Z,76.61
2024-01-24T02:52:38.792Z,76.71
2024-01-24T02:53:38.746Z,76.68
2024-01-24T02:54:38.809Z,77.90
2024-01-24T02:55:38.696Z,79.38
2024-01-24T02:56:38.714Z,78.16
2024-01-24T02:57:38.682Z,76.73
2024-01-24T02:58:38.645Z,74.72
2024-01-24T02:59:38.595Z,73.86
2024-01-24T03:00:38.672Z,76.12
2024-01-24T03:01:38.614Z,74.19
2024-01-24T03:02:38.589Z,75.19
2024-01-24T03:03:38.665Z,75.86
2024-01-24T03:04:38.598Z,75.89
2024-01-24T03:05:38.585Z,76.02
2024-01-24T03:06:38.630Z,76.37
2024-01-24T03:07:38.592Z,77.47
2024-01-24T03:08:38.513Z,76.01
2024-01-24T03:09:38.497Z,76.39
2024-01-24T03:10:38.448Z,76.43
2024-01-24T03:11:38.428Z,76.22
2024-01-24T03:12:38.436Z,79.59
2024-01-24T03:13:38.381Z,77.20
2024-01-24T03:14:38.346Z,78.54
2024-01-24T03:15:38.353Z,75.85
2024-01-24T03:16:38.293Z,74.45
2024-01-24T03:17:38.316Z,73.75
2024-01-24T03:18:38.288Z,76.36
2024-01-24T03:19:38.322Z,78.14
2024-01-24T03:20:38.213Z,76.83
2024-01-24T03:21:38.240Z,78.55
2024-01-24T03:22:38.249Z,79.68
2024-01-24T03:23:38.254Z,77.61
2024-01-24T03:24:38.276Z,77.69
2024-01-24T03:25:38.224Z,78.22
2024-01-24T03:26:38.182Z,78.27
2024-01-24T03:27:38.206Z,78.34
2024-01-24T03:28:38.138Z,79.09
2024-01-24T03:29:38.116Z,78.01
2024-01-24T03:30:38.133Z,77.85
2024-01-24T03:31:38.074Z,75.99
2024-01-24T03:32:38.098Z,75.42
2024-01-24T03:33:38.123Z,76.49
2024-01-24T03:34:38.110Z,77.11
2024-01-24T03:35:37.974Z,76.92
2024-01-24T03:36:38.063Z,77.96
2024-01-24T03:37:38.107Z,76.16
2024-01-24T03:38:38.040Z,79.14
2024-01-24T03:39:38.034Z,79.02
2024-01-24T03:40:38.016Z,79.26
2024-01-24T03:41:38.024Z,77.70
2024-01-24T03:42:37.993Z,76.90
2024-01-24T03:43:37.950Z,76.88
2024-01-24T03:44:37.883Z,77.00
2024-01-24T03:45:37.890Z,77.23
2024-01-24T03:46:37.865Z,77.88
2024-01-24T03:47:38.019Z,77.35
2024-01-24T03:48:37.980Z,77.92
2024-01-24T03:49:37.898Z,78.89
2024-01-24T03:50:37.833Z,78.95
2024-01-24T03:51:37.941Z,78.65
2024-01-24T03:52:37.829Z,78.13
2024-01-24T03:53:37.799Z,75.20
2024-01-24T03:54:37.798Z,75.86
2024-01-24T03:55:37.704Z,76.79
2024-01-24T03:56:37.665Z,78.14
2024-01-24T03:57:37.690Z,77.22
2024-01-24T03:58:37.619Z,81.40
2024-01-24T03:59:37.622Z,78.30
2024-01-24T04:00:37.638Z,79.13
2024-01-24T04:01:37.556Z,80.23
2024-01-24T04:02:37.549Z,77.57
2024-01-24T04:03:37.631Z,77.83
2024-01-24T04:04:37.612Z,78.06
2024-01-24T04:05:37.616Z,78.69
2024-01-24T04:06:37.700Z,78.44
2024-01-24T04:07:37.662Z,78.88
2024-01-24T04:08:37.690Z,79.64
2024-01-24T04:09:37.792Z,79.53
2024-01-24T04:10:37.729Z,77.58
2024-01-24T04:11:37.776Z,79.95
2024-01-24T04:12:37.859Z,77.85
2024-01-24T04:13:45.005Z,50.00
2024-01-24T04:14:44.997Z,50.00
2024-01-24T04:15:45.618Z,50.00
2024-01-24T04:16:44.993Z,50.00
2024-01-24T04:17:45.025Z,50.00
2024-01-24T04:18:45.074Z,50.00
2024-01-24T04:19:45.111Z,50.00
2024-01-24T04:20:45.000Z,50.00
2024-01-24T04:21:45.069Z,50.00
2024-01-24T04:22:44.992Z,51.60
2024-01-24T04:23:44.992Z,52.41
2024-01-24T04:24:45.000Z,50.00
2024-01-24T04:25:44.991Z,52.03
2024-01-24T04:26:44.974Z,51.74
2024-01-24T04:27:45.006Z,51.87
2024-01-24T04:28:44.990Z,51.08
2024-01-24T04:29:44.966Z,51.56
2024-01-24T04:30:45.047Z,51.34
2024-01-24T04:31:52.209Z,50.00
2024-01-24T04:32:52.288Z,50.00
2024-01-24T04:33:52.336Z,50.00
2024-01-24T04:34:53.545Z,50.00
2024-01-24T04:35:52.242Z,50.00
2024-01-24T04:36:52.284Z,50.00
2024-01-24T04:37:52.250Z,50.00
2024-01-24T04:38:52.264Z,50.00
2024-01-24T04:39:52.368Z,50.00
2024-01-24T04:40:52.287Z,50.00
2024-01-24T04:41:56.320Z,50.00
2024-01-24T04:42:53.345Z,50.00
2024-01-24T04:43:52.326Z,50.00
2024-01-24T04:44:52.330Z,50.00
2024-01-24T04:45:52.382Z,50.00
2024-01-24T04:46:52.376Z,50.00
2024-01-24T04:47:52.421Z,50.00
2024-01-24T04:48:52.453Z,51.70
2024-01-24T04:49:52.451Z,51.75
2024-01-24T04:50:52.409Z,51.91
2024-01-24T04:51:52.540Z,52.26
2024-01-24T04:52:52.423Z,52.22
2024-01-24T04:53:52.431Z,51.85
2024-01-24T04:54:52.628Z,53.21
2024-01-24T04:55:52.456Z,50.50
2024-01-24T04:56:52.486Z,53.43
2024-01-24T04:57:52.489Z,52.88
2024-01-24T04:58:52.523Z,51.74
2024-01-24T04:59:55.993Z,52.49
2024-01-24T05:00:52.627Z,52.57
2024-01-24T05:01:52.524Z,52.55
2024-01-24T05:02:52.532Z,52.83
2024-01-24T05:03:52.651Z,53.23
2024-01-24T05:04:52.596Z,52.61
2024-01-24T05:05:58.559Z,52.86
2024-01-24T05:06:53.651Z,52.61
2024-01-24T05:07:52.631Z,52.88
2024-01-24T05:08:52.645Z,53.52
2024-01-24T05:09:52.704Z,53.93
2024-01-24T05:10:52.662Z,54.26
2024-01-24T05:11:52.666Z,55.03
2024-01-24T05:12:52.739Z,54.08
2024-01-24T05:13:52.693Z,55.17
2024-01-24T05:14:52.708Z,56.65
2024-01-24T05:15:52.779Z,57.00
2024-01-24T05:16:52.732Z,53.19
2024-01-24T05:17:52.793Z,55.73
2024-01-24T05:18:52.864Z,55.89
2024-01-24T05:19:52.736Z,54.76
2024-01-24T05:20:52.752Z,54.54
2024-01-24T05:21:52.928Z,53.74
2024-01-24T05:22:52.766Z,53.83
2024-01-24T05:23:52.768Z,55.42
2024-01-24T05:24:52.801Z,55.79
2024-01-24T05:25:52.842Z,55.82
2024-01-24T05:26:52.871Z,56.34
2024-01-24T05:27:53.014Z,56.28
2024-01-24T05:28:52.958Z,57.33
2024-01-24T05:29:53.016Z,55.18
2024-01-24T05:30:53.089Z,54.54
2024-01-24T05:31:53.111Z,54.50
2024-01-24T05:32:53.159Z,52.93
2024-01-24T05:33:53.210Z,52.57
2024-01-24T05:34:53.306Z,55.88
2024-01-24T05:35:53.277Z,55.59
2024-01-24T05:36:53.425Z,54.91
2024-01-24T05:37:53.381Z,52.74
2024-01-24T05:38:53.393Z,55.97
2024-01-24T05:39:53.595Z,54.75
2024-01-24T05:40:53.502Z,54.95
2024-01-24T05:41:53.551Z,55.11
2024-01-24T05:42:53.956Z,53.75
2024-01-24T05:43:53.667Z,56.65
2024-01-24T05:44:53.685Z,55.63
2024-01-24T05:45:53.795Z,55.79
2024-01-24T05:46:53.818Z,54.71
2024-01-24T05:47:53.958Z,55.18
2024-01-24T05:48:54.020Z,54.58
2024-01-24T05:49:53.931Z,54.82
2024-01-24T05:50:53.954Z,54.32
2024-01-24T05:51:54.038Z,55.01
2024-01-24T05:52:54.040Z,53.46
2024-01-24T05:53:54.078Z,55.39
2024-01-24T05:54:54.382Z,55.42
2024-01-24T05:55:54.166Z,55.28
2024-01-24T05:56:54.220Z,55.68
2024-01-24T05:57:54.399Z,56.38
2024-01-24T05:58:54.317Z,56.95
2024-01-24T05:59:54.409Z,56.01
2024-01-24T06:00:54.512Z,55.09
2024-01-24T06:01:54.470Z,56.66
2024-01-24T06:02:54.493Z,55.53
2024-01-24T06:03:54.637Z,54.43
2024-01-24T06:04:54.737Z,54.16
2024-01-24T06:05:56.333Z,54.73
2024-01-24T06:06:54.725Z,53.08
2024-01-24T06:07:54.826Z,56.07
2024-01-24T06:08:54.780Z,54.22
2024-01-24T06:09:54.846Z,55.07
2024-01-24T06:10:54.899Z,56.52
2024-01-24T06:11:54.913Z,52.95
2024-01-24T06:12:55.081Z,54.49
2024-01-24T06:13:55.028Z,56.06
2024-01-24T06:14:55.064Z,53.97
2024-01-24T06:15:55.178Z,53.22
2024-01-24T06:16:55.154Z,51.96
2024-01-24T06:17:55.223Z,54.60
2024-01-24T06:18:55.335Z,53.01
2024-01-24T06:19:55.292Z,52.77
2024-01-24T06:20:55.361Z,54.54
2024-01-24T06:21:55.430Z,55.28
2024-01-24T06:22:55.439Z,53.47
2024-01-24T06:23:55.466Z,54.11
2024-01-24T06:24:55.572Z,55.32
2024-01-24T06:25:55.610Z,54.68
2024-01-24T06:26:55.624Z,54.86
2024-01-24T06:27:56.024Z,55.80
2024-01-24T06:28:55.707Z,54.34
2024-01-24T06:30:17.552Z,53.23
2024-01-24T06:30:56.811Z,53.28
2024-01-24T06:31:55.814Z,53.16
2024-01-24T06:32:55.823Z,53.30
2024-01-24T06:33:55.886Z,51.09
2024-01-24T06:34:55.806Z,45.70
2024-01-24T06:35:55.796Z,51.07
2024-01-24T06:36:55.838Z,50.49
2024-01-24T06:37:55.804Z,52.40
2024-01-24T06:38:55.804Z,52.38
2024-01-24T06:39:55.812Z,51.24
2024-01-24T06:40:55.837Z,48.89
2024-01-24T06:41:55.826Z,51.59
2024-01-24T06:42:56.073Z,52.00
2024-01-24T06:43:55.832Z,52.74
2024-01-24T06:44:55.838Z,50.28
2024-01-24T06:45:55.872Z,55.59
2024-01-24T06:46:55.877Z,58.84
2024-01-24T06:47:55.909Z,59.90
2024-01-24T06:48:56.044Z,63.96
2024-01-24T06:49:55.862Z,63.64
2024-01-24T06:50:55.872Z,70.18
2024-01-24T06:51:55.959Z,66.49
2024-01-24T06:52:56.656Z,73.41
2024-01-24T06:53:55.843Z,73.85
2024-01-24T06:54:55.846Z,76.99
2024-01-24T06:55:56.009Z,76.62
2024-01-24T06:56:55.978Z,76.61
2024-01-24T06:57:55.933Z,74.38
2024-01-24T06:58:55.863Z,78.30
2024-01-24T06:59:55.891Z,80.89
2024-01-24T07:00:55.959Z,81.23
2024-01-24T07:01:56.018Z,82.90
2024-01-24T07:02:55.920Z,82.73
2024-01-24T07:03:56.046Z,79.76
2024-01-24T07:04:56.024Z,81.01
2024-01-24T07:05:56.107Z,81.26
2024-01-24T07:06:55.986Z,84.94
2024-01-24T07:07:56.029Z,79.62
2024-01-24T07:08:56.044Z,81.25
2024-01-24T07:09:56.101Z,85.76
2024-01-24T07:10:56.070Z,87.16
2024-01-24T07:11:56.047Z,87.22
2024-01-24T07:12:56.140Z,86.97
2024-01-24T07:13:56.079Z,83.27
2024-01-24T07:14:56.076Z,83.41
2024-01-24T07:15:56.134Z,84.38
2024-01-24T07:16:56.103Z,87.23
2024-01-24T07:17:56.177Z,87.99
2024-01-24T07:18:56.145Z,83.98
2024-01-24T07:19:56.087Z,87.22
2024-01-24T07:20:56.047Z,87.82
2024-01-24T07:21:56.122Z,89.64
2024-01-24T07:22:56.114Z,91.85
2024-01-24T07:23:56.016Z,89.12
2024-01-24T07:24:56.100Z,86.75
2024-01-24T07:25:56.022Z,86.91
2024-01-24T07:26:56.034Z,87.09
2024-01-24T07:27:56.128Z,88.56
2024-01-24T07:28:56.075Z,88.57
2024-01-24T07:29:56.173Z,89.01
2024-01-24T07:30:56.038Z,90.74
2024-01-24T07:31:56.028Z,90.85
2024-01-24T07:32:56.147Z,90.89
2024-01-24T07:33:56.148Z,92.14
2024-01-24T07:34:56.205Z,89.91
2024-01-24T07:35:56.055Z,87.65
2024-01-24T07:36:56.182Z,90.28
2024-01-24T07:37:55.981Z,93.42
2024-01-24T07:38:56.058Z,93.53
2024-01-24T07:39:56.163Z,90.73
2024-01-24T07:40:56.006Z,87.62
2024-01-24T07:41:55.958Z,88.78
2024-01-24T07:42:56.450Z,87.40
2024-01-24T07:43:56.041Z,90.19
2024-01-24T07:44:56.922Z,86.28
2024-01-24T07:45:56.063Z,87.17
2024-01-24T07:46:56.019Z,87.40
2024-01-24T07:47:56.049Z,81.09
2024-01-24T07:48:56.162Z,79.03
2024-01-24T07:49:56.149Z,71.24
2024-01-24T07:50:55.962Z,70.55
2024-01-24T07:51:56.332Z,69.04
2024-01-24T07:52:56.107Z,62.41
2024-01-24T07:53:55.973Z,70.43
2024-01-24T07:54:57.066Z,70.46
2024-01-24T07:56:02.587Z,67.21
2024-01-24T07:56:56.972Z,69.88
2024-01-24T07:57:56.171Z,71.16
2024-01-24T07:58:56.023Z,71.06
2024-01-24T07:59:55.989Z,74.56
2024-01-24T08:00:56.173Z,76.78
2024-01-24T08:01:56.001Z,75.96
2024-01-24T08:02:55.966Z,81.79
2024-01-24T08:03:56.094Z,81.64
2024-01-24T08:04:56.230Z,78.91
2024-01-24T08:05:55.957Z,82.73
2024-01-24T08:06:56.019Z,79.99
2024-01-24T08:07:56.405Z,84.68
2024-01-24T08:08:55.960Z,88.83
2024-01-24T08:09:56.206Z,87.86
2024-01-24T08:10:56.140Z,92.08
2024-01-24T08:11:56.169Z,94.63
2024-01-24T08:12:56.225Z,96.66
2024-01-24T08:13:56.184Z,98.21
2024-01-24T08:14:56.256Z,93.47
2024-01-24T08:15:56.430Z,93.12
2024-01-24T08:16:56.361Z,99.26
2024-01-24T08:17:56.472Z,100.58
2024-01-24T08:18:56.701Z,101.97
2024-01-24T08:19:56.627Z,98.00
2024-01-24T08:20:56.756Z,105.27
2024-01-24T08:21:56.746Z,102.21
2024-01-24T08:22:56.925Z,102.09
2024-01-24T08:23:56.538Z,103.15
2024-01-24T08:24:56.627Z,103.04
2024-01-24T08:25:56.525Z,106.69
2024-01-24T08:26:56.544Z,107.44
2024-01-24T08:27:56.665Z,107.43
2024-01-24T08:28:56.565Z,106.79
2024-01-24T08:29:56.645Z,106.77
2024-01-24T08:30:56.736Z,107.92
2024-01-24T08:31:56.815Z,109.72
2024-01-24T08:32:56.892Z,109.76
2024-01-24T08:33:56.860Z,109.85
2024-01-24T08:34:56.745Z,109.79
2024-01-24T08:35:56.682Z,109.99
2024-01-24T08:36:56.724Z,109.94
2024-01-24T08:37:56.759Z,108.97
2024-01-24T08:38:56.691Z,105.54
2024-01-24T08:39:56.686Z,90.59
2024-01-24T08:40:56.621Z,82.29
2024-01-24T08:41:56.626Z,76.93
2024-01-24T08:42:56.708Z,61.16
2024-01-24T08:43:57.405Z,63.17
2024-01-24T08:44:56.903Z,60.33
2024-01-24T08:45:56.946Z,60.29
2024-01-24T08:46:56.900Z,54.13
2024-01-24T08:47:56.937Z,54.94
2024-01-24T08:48:57.012Z,55.58
2024-01-24T08:49:57.025Z,53.76
2024-01-24T08:50:56.946Z,53.77
2024-01-24T08:51:57.018Z,53.83
2024-01-24T08:52:57.000Z,55.08
2024-01-24T08:53:56.954Z,54.24
2024-01-24T08:54:57.005Z,54.07
2024-01-24T08:55:56.961Z,53.95
2024-01-24T08:56:56.956Z,55.95
2024-01-24T08:57:57.049Z,56.58
2024-01-24T08:58:56.947Z,59.71
2024-01-24T08:59:57.074Z,57.93
2024-01-24T09:00:57.020Z,60.67
2024-01-24T09:01:56.970Z,58.99
2024-01-24T09:02:56.969Z,60.44
2024-01-24T09:03:56.971Z,63.89
2024-01-24T09:04:56.990Z,64.16
2024-01-24T09:05:56.965Z,65.11
2024-01-24T09:06:57.092Z,64.42
2024-01-24T09:07:56.898Z,66.03
2024-01-24T09:08:56.907Z,68.82
2024-01-24T09:09:56.885Z,72.78
2024-01-24T09:10:56.856Z,64.38
2024-01-24T09:11:57.606Z,66.20
2024-01-24T09:12:56.901Z,68.98
2024-01-24T09:13:56.871Z,73.16
2024-01-24T09:14:56.808Z,81.42
2024-01-24T09:15:56.827Z,85.71
2024-01-24T09:16:56.782Z,86.74
2024-01-24T09:17:56.911Z,86.26
2024-01-24T09:18:56.918Z,87.00
2024-01-24T09:19:57.060Z,86.95
2024-01-24T09:20:56.932Z,88.22
2024-01-24T09:21:57.118Z,85.32
2024-01-24T09:22:57.021Z,85.99
2024-01-24T09:23:57.062Z,91.49
2024-01-24T09:24:57.145Z,87.66
2024-01-24T09:25:57.136Z,89.02
2024-01-24T09:26:57.196Z,90.04
2024-01-24T09:27:57.407Z,91.08
2024-01-24T09:28:57.252Z,94.11
2024-01-24T09:29:57.305Z,92.71
2024-01-24T09:30:57.396Z,94.24
2024-01-24T09:31:57.413Z,95.12
2024-01-24T09:32:57.589Z,96.20
2024-01-24T09:33:57.600Z,94.82
2024-01-24T09:34:57.532Z,96.52
2024-01-24T09:35:57.483Z,97.77
2024-01-24T09:36:57.462Z,99.01
2024-01-24T09:37:57.458Z,102.79
2024-01-24T09:38:57.429Z,104.28
2024-01-24T09:39:57.513Z,107.12
2024-01-24T09:40:57.530Z,109.26
2024-01-24T09:41:57.468Z,109.01
2024-01-24T09:42:57.523Z,108.98
2024-01-24T09:43:57.465Z,109.50
2024-01-24T09:44:57.473Z,106.12
2024-01-24T09:45:57.532Z,105.68
2024-01-24T09:46:57.540Z,102.83
2024-01-24T09:47:57.513Z,99.11
2024-01-24T09:48:57.551Z,101.46
2024-01-24T09:49:57.488Z,106.21
2024-01-24T09:50:57.477Z,108.37
2024-01-24T09:51:57.632Z,109.28
2024-01-24T09:52:57.493Z,105.92
2024-01-24T09:53:57.521Z,100.50
2024-01-24T09:54:57.644Z,97.11
2024-01-24T09:55:57.560Z,94.80
2024-01-24T09:56:57.583Z,87.62
2024-01-24T09:57:57.621Z,85.27
2024-01-24T09:58:57.599Z,84.17
2024-01-24T09:59:57.535Z,83.56
2024-01-24T10:00:57.667Z,69.35
2024-01-24T10:01:57.676Z,68.78
2024-01-24T10:02:57.651Z,62.88
2024-01-24T10:03:57.751Z,62.39
2024-01-24T10:04:57.641Z,53.30
2024-01-24T10:05:57.640Z,50.15
2024-01-24T10:06:57.714Z,43.26
2024-01-24T10:07:57.719Z,34.02
2024-01-24T10:08:57.665Z,49.34
2024-01-24T10:10:00.164Z,50.00
2024-01-24T10:10:57.680Z,52.40
2024-01-24T10:11:57.680Z,50.52
2024-01-24T10:12:57.748Z,54.54
2024-01-24T10:13:57.660Z,50.88
2024-01-24T10:14:57.658Z,55.38
2024-01-24T10:15:57.704Z,53.92
2024-01-24T10:16:57.652Z,55.58
2024-01-24T10:17:57.679Z,52.37
2024-01-24T10:18:57.780Z,53.43
2024-01-24T10:19:57.769Z,49.35
2024-01-24T10:20:57.650Z,51.28
2024-01-24T10:21:57.708Z,52.46
2024-01-24T10:22:57.640Z,52.13
2024-01-24T10:23:57.621Z,51.02
2024-01-24T10:24:57.668Z,51.79
2024-01-24T10:25:57.695Z,55.73
2024-01-24T10:26:57.638Z,52.17
2024-01-24T10:27:57.644Z,50.00
2024-01-24T10:28:57.612Z,53.01
2024-01-24T10:29:57.599Z,55.08
2024-01-24T10:30:57.675Z,53.83
2024-01-24T10:31:57.628Z,57.02
2024-01-24T10:32:57.659Z,53.67
2024-01-24T10:33:57.807Z,58.49
2024-01-24T10:34:57.648Z,59.31
2024-01-24T10:35:59.415Z,59.96
2024-01-24T10:36:57.625Z,61.64
2024-01-24T10:37:57.596Z,60.49
2024-01-24T10:38:57.591Z,55.17
2024-01-24T10:39:57.610Z,56.96
2024-01-24T10:40:57.572Z,59.35
2024-01-24T10:41:57.598Z,60.39
2024-01-24T10:42:57.720Z,66.28
2024-01-24T10:43:57.585Z,79.86
2024-01-24T10:44:57.570Z,82.13
2024-01-24T10:45:57.715Z,95.15
2024-01-24T10:46:57.618Z,101.42
2024-01-24T10:47:57.607Z,108.00
2024-01-24T10:48:57.645Z,108.26
2024-01-24T10:49:57.753Z,117.88
2024-01-24T10:50:57.538Z,116.79
2024-01-24T10:51:57.648Z,125.65
2024-01-24T10:52:57.518Z,123.21
2024-01-24T10:53:57.523Z,133.54
2024-01-24T10:54:57.512Z,134.35
2024-01-24T10:55:57.487Z,136.10
2024-01-24T10:56:57.470Z,137.45
2024-01-24T10:57:57.548Z,134.98
2024-01-24T10:58:57.463Z,137.90
2024-01-24T10:59:57.453Z,134.43
2024-01-24T11:00:57.528Z,138.14
2024-01-24T11:01:57.454Z,143.84
2024-01-24T11:02:57.478Z,137.42
2024-01-24T11:03:57.463Z,143.38
2024-01-24T11:04:57.449Z,147.43
2024-01-24T11:05:57.507Z,146.62
2024-01-24T11:06:57.464Z,141.91
2024-01-24T11:07:57.432Z,143.66
2024-01-24T11:08:57.431Z,144.52
2024-01-24T11:09:57.454Z,144.67
2024-01-24T11:10:57.376Z,145.29
2024-01-24T11:11:57.380Z,147.84
2024-01-24T11:12:57.476Z,147.87
2024-01-24T11:13:57.374Z,147.99
2024-01-24T11:14:57.372Z,147.32
2024-01-24T11:15:57.446Z,153.12
2024-01-24T11:16:57.337Z,149.88
2024-01-24T11:17:57.376Z,154.43
2024-01-24T11:18:57.429Z,152.00
2024-01-24T11:19:57.527Z,149.43
2024-01-24T11:20:57.355Z,148.36
2024-01-24T11:21:57.546Z,150.53
2024-01-24T11:22:57.310Z,151.19
2024-01-24T11:23:57.304Z,157.06
2024-01-24T11:24:57.325Z,151.13
2024-01-24T11:25:57.291Z,155.97
2024-01-24T11:26:58.259Z,157.64
2024-01-24T11:27:57.374Z,157.01
2024-01-24T11:28:57.259Z,158.43
2024-01-24T11:29:57.274Z,156.79
2024-01-24T11:30:57.274Z,153.88
2024-01-24T11:31:57.268Z,155.91
2024-01-24T11:32:57.428Z,156.72
2024-01-24T11:33:57.351Z,155.65
2024-01-24T11:34:57.388Z,158.00
2024-01-24T11:35:57.277Z,158.01
2024-01-24T11:36:57.321Z,158.50
2024-01-24T11:38:04.782Z,159.25
2024-01-24T11:38:58.268Z,158.09
2024-01-24T11:39:57.334Z,150.02
2024-01-24T11:40:57.256Z,147.30
2024-01-24T11:41:57.230Z,122.78
2024-01-24T11:42:57.274Z,104.54
2024-01-24T11:43:57.239Z,92.60
2024-01-24T11:44:57.213Z,89.61
2024-01-24T11:45:57.338Z,85.90
2024-01-24T11:46:57.236Z,80.54
2024-01-24T11:47:57.336Z,76.25
2024-01-24T11:48:57.264Z,67.94
2024-01-24T11:49:57.375Z,68.14
2024-01-24T11:50:57.218Z,68.47
2024-01-24T11:51:57.276Z,71.94
2024-01-24T11:52:57.231Z,66.67
2024-01-24T11:53:57.237Z,68.18
2024-01-24T11:54:57.309Z,60.39
2024-01-24T11:55:57.314Z,60.63
2024-01-24T11:56:57.311Z,65.06
2024-01-24T11:57:57.448Z,56.18
2024-01-24T11:58:57.394Z,59.48
2024-01-24T11:59:57.453Z,60.39
2024-01-24T12:00:57.665Z,59.09
2024-01-24T12:01:57.615Z,55.91
2024-01-24T12:02:57.689Z,59.78
2024-01-24T12:03:57.753Z,59.89
2024-01-24T12:04:57.765Z,57.80
2024-01-24T12:05:57.838Z,56.39
2024-01-24T12:06:57.891Z,55.87
2024-01-24T12:07:57.901Z,61.84
2024-01-24T12:08:58.567Z,56.26
2024-01-24T12:09:58.233Z,56.13
2024-01-24T12:10:58.031Z,56.51
2024-01-24T12:11:58.078Z,52.62
2024-01-24T12:12:58.232Z,53.16
2024-01-24T12:13:58.197Z,55.20
2024-01-24T12:14:59.349Z,57.25
2024-01-24T12:15:58.593Z,57.03
2024-01-24T12:16:58.444Z,51.20
2024-01-24T12:17:58.438Z,48.48
2024-01-24T12:18:58.556Z,47.83
2024-01-24T12:19:58.511Z,47.76
2024-01-24T12:21:02.146Z,49.55
2024-01-24T12:21:58.559Z,33.86
2024-01-24T12:22:58.517Z,13.28
2024-01-24T12:23:58.561Z,0.71
2024-01-24T12:24:58.633Z,2.40
2024-01-24T12:25:58.614Z,7.31
2024-01-24T12:27:00.217Z,37.96
2024-01-24T12:27:58.736Z,60.76
2024-01-24T12:28:58.641Z,73.36
2024-01-24T12:29:58.702Z,87.07
2024-01-24T12:30:58.811Z,98.36
2024-01-24T12:31:58.679Z,103.36
2024-01-24T12:32:58.909Z,103.59
2024-01-24T12:33:58.695Z,105.63
2024-01-24T12:34:58.875Z,110.96
2024-01-24T12:35:58.669Z,122.74
2024-01-24T12:36:58.747Z,140.98
2024-01-24T12:37:58.662Z,147.10
2024-01-24T12:38:58.935Z,152.43
2024-01-24T12:39:58.747Z,156.40
2024-01-24T12:40:58.677Z,160.91
2024-01-24T12:41:58.638Z,164.93
2024-01-24T12:42:58.727Z,172.96
2024-01-24T12:43:58.649Z,171.80
2024-01-24T12:44:58.622Z,175.79
2024-01-24T12:45:58.621Z,177.61
2024-01-24T12:46:58.624Z,177.73
2024-01-24T12:47:58.652Z,178.16
2024-01-24T12:48:58.714Z,179.95
2024-01-24T12:49:58.796Z,182.29